Biltmor, North Carolina
Current Conditions -  °F | °C
As of 4:54 PM on Friday 31 Oct 2014 (Local Time) from KAVL Reporting Station
Overcast Overcast  
Wind Chill: 43°   Ceiling: 4600
Heat Index: 49°   Visibility: 10mi
Dew Point: 38°   Wind: 15mph
Humidity: 66%   Direction: 340°NNW
Pressure: 29.82"   Gusts: NA
Location:  35.5527°N, 82.5111°W
Report Text: KAVL 312054Z 34013KT 10SM OVC046 09/03 A2982 RMK AO2 RAE37 SLP098 P0000 60000 T00940033 56009
Loading
Personal Weather Stations






























Interactive Weather Map
Tropical Storm Tracking
New forecast layout! Learn more

10-Day Weather Forecast

Advertisements
Track Severe Weather on mobile